createdAt,value
2019-01-20T00:00:09.204Z,53.90
2019-01-20T00:02:42.584Z,53.73
2019-01-20T00:05:15.209Z,48.02
2019-01-20T00:07:47.426Z,56.28
2019-01-20T00:10:19.838Z,56.83
2019-01-20T00:12:51.973Z,54.38
2019-01-20T00:15:24.028Z,51.23
2019-01-20T00:17:56.406Z,56.33
2019-01-20T00:20:28.942Z,67.53
2019-01-20T00:23:01.304Z,60.80
2019-01-20T00:25:33.828Z,57.98
2019-01-20T00:28:06.040Z,50.43
2019-01-20T00:30:38.080Z,48.02
2019-01-20T00:33:10.345Z,42.17
2019-01-20T00:35:42.467Z,44.08
2019-01-20T00:38:16.173Z,40.25
2019-01-20T00:40:48.517Z,41.83
2019-01-20T00:43:20.530Z,47.05
2019-01-20T00:45:52.768Z,47.33
2019-01-20T00:48:24.986Z,61.33
2019-01-20T00:51:00.937Z,66.50
2019-01-20T00:53:33.157Z,51.73
2019-01-20T00:56:05.646Z,48.68
2019-01-20T00:58:37.882Z,46.10
2019-01-20T01:01:10.372Z,38.83
2019-01-20T01:03:42.569Z,41.98
2019-01-20T01:06:14.843Z,28.65
2019-01-20T01:08:46.979Z,29.42
2019-01-20T01:11:19.075Z,31.68
2019-01-20T01:13:51.417Z,26.57
2019-01-20T01:16:23.499Z,26.07
2019-01-20T01:18:55.926Z,27.07
2019-01-20T01:21:28.323Z,22.58
2019-01-20T01:24:00.420Z,22.80
2019-01-20T01:26:32.841Z,23.95
2019-01-20T01:29:05.301Z,20.08
2019-01-20T01:31:37.645Z,20.57
2019-01-20T01:34:10.072Z,27.22
2019-01-20T01:36:42.324Z,23.32
2019-01-20T01:39:14.553Z,30.08
2019-01-20T01:41:46.869Z,26.60
2019-01-20T01:44:39.450Z,26.20
2019-01-20T01:47:12.711Z,23.05
2019-01-20T01:49:44.877Z,29.70
2019-01-20T01:52:17.295Z,18.75
2019-01-20T01:54:49.974Z,20.57
2019-01-20T01:57:22.295Z,18.87
2019-01-20T01:59:54.453Z,23.12
2019-01-20T02:02:26.775Z,24.37
2019-01-20T02:04:59.160Z,20.90
2019-01-20T02:07:31.214Z,21.77
2019-01-20T02:10:03.547Z,24.55
2019-01-20T02:12:35.689Z,22.95
2019-01-20T02:15:10.127Z,16.42
2019-01-20T02:17:43.154Z,17.02
2019-01-20T02:20:17.559Z,21.10
2019-01-20T02:22:51.227Z,19.57
2019-01-20T02:25:23.223Z,18.70
2019-01-20T02:27:56.292Z,22.25
2019-01-20T02:30:29.665Z,27.95
2019-01-20T02:33:02.265Z,21.20
2019-01-20T02:35:34.390Z,20.52
2019-01-20T02:38:06.803Z,22.00
2019-01-20T02:40:38.800Z,21.12
2019-01-20T02:43:11.363Z,24.67
2019-01-20T02:45:43.662Z,20.50
2019-01-20T02:48:15.759Z,18.37
2019-01-20T02:50:47.878Z,15.35
2019-01-20T02:53:21.104Z,16.80
2019-01-20T02:55:53.219Z,16.97
2019-01-20T02:58:25.774Z,15.88
2019-01-20T03:00:57.909Z,15.35
2019-01-20T03:03:30.488Z,17.30
2019-01-20T03:06:02.613Z,15.50
2019-01-20T03:08:34.663Z,20.82
2019-01-20T03:11:06.888Z,12.13
2019-01-20T03:13:39.166Z,16.77
2019-01-20T03:16:11.191Z,16.57
2019-01-20T03:18:43.719Z,19.67
2019-01-20T03:21:16.021Z,17.92
2019-01-20T03:23:48.620Z,14.50
2019-01-20T03:26:21.626Z,14.13
2019-01-20T03:28:54.066Z,18.80
2019-01-20T03:31:26.296Z,15.38
2019-01-20T03:33:58.603Z,18.12
2019-01-20T03:36:30.528Z,14.78
2019-01-20T03:39:03.264Z,14.78
2019-01-20T03:41:35.629Z,17.92
2019-01-20T03:44:08.196Z,17.60
2019-01-20T03:46:40.232Z,19.95
2019-01-20T03:49:12.578Z,16.20
2019-01-20T03:51:44.809Z,18.95
2019-01-20T03:54:17.636Z,16.10
2019-01-20T03:56:49.965Z,15.38
2019-01-20T03:59:22.043Z,17.02
2019-01-20T04:01:54.110Z,14.68
2019-01-20T04:04:26.671Z,16.02
2019-01-20T04:06:58.714Z,14.83
2019-01-20T04:09:31.065Z,17.27
2019-01-20T04:12:03.421Z,14.05
2019-01-20T04:14:35.661Z,17.60
2019-01-20T04:17:07.794Z,19.27
2019-01-20T04:19:40.000Z,15.85
2019-01-20T04:22:12.344Z,17.73
2019-01-20T04:24:44.402Z,14.53
2019-01-20T04:27:17.163Z,14.47
2019-01-20T04:29:49.514Z,15.83
2019-01-20T04:32:21.938Z,15.88
2019-01-20T04:34:54.021Z,15.50
2019-01-20T04:37:26.620Z,16.40
2019-01-20T04:39:58.882Z,15.13
2019-01-20T04:42:30.995Z,17.48
2019-01-20T04:45:03.412Z,17.20
2019-01-20T04:47:35.479Z,21.52
2019-01-20T04:50:10.189Z,16.85
2019-01-20T04:52:42.368Z,15.65
2019-01-20T04:55:15.844Z,15.28
2019-01-20T04:57:49.368Z,16.05
2019-01-20T05:00:24.599Z,14.85
2019-01-20T05:02:56.985Z,16.45
2019-01-20T05:05:29.234Z,16.67
2019-01-20T05:08:02.072Z,16.48
2019-01-20T05:10:34.194Z,17.57
2019-01-20T05:13:06.255Z,15.68
2019-01-20T05:15:38.379Z,18.17
2019-01-20T05:18:10.893Z,15.10
2019-01-20T05:20:43.198Z,21.90
2019-01-20T05:23:15.655Z,14.03
2019-01-20T05:25:48.226Z,14.68
2019-01-20T05:28:20.671Z,16.48
2019-01-20T05:30:52.897Z,13.75
2019-01-20T05:33:24.896Z,17.48
2019-01-20T05:35:57.046Z,18.57
2019-01-20T05:38:29.267Z,14.87
2019-01-20T05:41:02.076Z,15.50
2019-01-20T05:43:34.288Z,18.95
2019-01-20T05:46:06.493Z,12.75
2019-01-20T05:48:38.765Z,13.43
2019-01-20T05:51:11.379Z,17.98
2019-01-20T05:53:43.537Z,21.15
2019-01-20T05:56:15.904Z,14.00
2019-01-20T05:58:48.135Z,16.12
2019-01-20T06:01:20.623Z,14.75
2019-01-20T06:03:53.311Z,16.07
2019-01-20T06:06:25.412Z,14.13
2019-01-20T06:08:58.927Z,18.20
2019-01-20T06:11:31.324Z,13.70
2019-01-20T06:14:03.365Z,12.47
2019-01-20T06:16:35.546Z,17.00
2019-01-20T06:19:07.684Z,14.05
2019-01-20T06:21:40.294Z,13.98
2019-01-20T06:24:12.324Z,12.63
2019-01-20T06:26:44.624Z,12.55
2019-01-20T06:29:17.284Z,17.23
2019-01-20T06:31:49.624Z,14.03
2019-01-20T06:34:21.864Z,12.30
2019-01-20T06:36:53.959Z,11.97
2019-01-20T06:39:26.137Z,12.20
2019-01-20T06:41:58.208Z,12.93
2019-01-20T06:44:30.873Z,11.57
2019-01-20T06:47:02.882Z,15.90
2019-01-20T06:49:35.853Z,15.40
2019-01-20T06:52:08.096Z,17.12
2019-01-20T06:54:40.750Z,13.30
2019-01-20T06:57:13.959Z,14.43
2019-01-20T06:59:46.118Z,15.15
2019-01-20T07:02:18.177Z,17.92
2019-01-20T07:04:51.022Z,13.62
2019-01-20T07:07:23.218Z,13.93
2019-01-20T07:09:55.796Z,14.00
2019-01-20T07:12:28.206Z,12.58
2019-01-20T07:15:00.334Z,11.12
2019-01-20T07:17:33.222Z,13.72
2019-01-20T07:20:06.162Z,12.65
2019-01-20T07:22:38.872Z,14.38
2019-01-20T07:25:11.426Z,11.68
2019-01-20T07:27:43.468Z,9.95
2019-01-20T07:30:17.687Z,16.45
2019-01-20T07:32:49.735Z,12.55
2019-01-20T07:35:22.651Z,12.23
2019-01-20T07:37:54.920Z,14.63
2019-01-20T07:40:27.488Z,16.17
2019-01-20T07:42:59.821Z,11.73
2019-01-20T07:45:32.550Z,15.25
2019-01-20T07:48:04.777Z,15.13
2019-01-20T07:50:37.259Z,13.83
2019-01-20T07:53:09.376Z,11.68
2019-01-20T07:55:41.706Z,11.48
2019-01-20T07:58:14.138Z,15.18
2019-01-20T08:00:46.173Z,17.42
2019-01-20T08:03:18.560Z,16.55
2019-01-20T08:05:50.965Z,12.98
2019-01-20T08:08:23.174Z,14.20
2019-01-20T08:10:55.504Z,12.50
2019-01-20T08:13:28.236Z,13.45
2019-01-20T08:16:01.008Z,14.85
2019-01-20T08:18:33.549Z,15.85
2019-01-20T08:21:05.607Z,17.80
2019-01-20T08:23:37.855Z,15.65
2019-01-20T08:26:10.047Z,13.70
2019-01-20T08:28:42.425Z,12.88
2019-01-20T08:31:14.568Z,15.70
2019-01-20T08:33:47.025Z,15.23
2019-01-20T08:36:20.303Z,17.40
2019-01-20T08:38:52.849Z,16.12
2019-01-20T08:41:24.857Z,12.23
2019-01-20T08:43:57.336Z,13.48
2019-01-20T08:46:31.852Z,16.67
2019-01-20T08:49:04.151Z,22.82
2019-01-20T08:51:57.008Z,30.80
2019-01-20T08:54:29.162Z,33.08
2019-01-20T08:57:01.715Z,29.95
2019-01-20T08:59:33.907Z,14.20
2019-01-20T09:02:06.358Z,12.58
2019-01-20T09:04:38.562Z,14.40
2019-01-20T09:07:12.359Z,15.10
2019-01-20T09:09:44.350Z,16.42
2019-01-20T09:12:21.442Z,14.03
2019-01-20T09:14:53.372Z,15.13
2019-01-20T09:17:25.568Z,14.05
2019-01-20T09:19:57.784Z,18.67
2019-01-20T09:22:31.372Z,14.33
2019-01-20T09:25:03.593Z,17.27
2019-01-20T09:27:36.088Z,16.60
2019-01-20T09:30:10.724Z,18.30
2019-01-20T09:32:43.200Z,16.32
2019-01-20T09:35:15.578Z,17.85
2019-01-20T09:37:47.925Z,16.42
2019-01-20T09:40:20.877Z,14.78
2019-01-20T09:42:53.404Z,15.63
2019-01-20T09:45:29.459Z,17.55
2019-01-20T09:48:01.989Z,20.17
2019-01-20T09:50:34.444Z,15.53
2019-01-20T09:53:07.345Z,13.53
2019-01-20T09:55:52.358Z,14.70
2019-01-20T09:58:25.235Z,14.28
2019-01-20T10:00:57.580Z,13.72
2019-01-20T10:03:29.842Z,14.80
2019-01-20T10:06:02.745Z,18.00
2019-01-20T10:08:35.102Z,16.55
2019-01-20T10:11:07.902Z,16.45
2019-01-20T10:13:40.737Z,17.67
2019-01-20T10:16:12.840Z,26.87
2019-01-20T10:18:45.360Z,16.70
2019-01-20T10:21:17.867Z,18.60
2019-01-20T10:23:51.378Z,23.27
2019-01-20T10:26:24.570Z,17.67
2019-01-20T10:29:10.082Z,21.15
2019-01-20T10:31:42.633Z,20.80
2019-01-20T10:34:15.118Z,15.32
2019-01-20T10:36:49.264Z,22.87
2019-01-20T10:39:21.743Z,19.57
2019-01-20T10:41:54.487Z,23.15
2019-01-20T10:44:27.195Z,21.40
2019-01-20T10:46:59.769Z,30.65
2019-01-20T10:49:32.232Z,33.13
2019-01-20T10:52:04.781Z,31.27
2019-01-20T10:54:37.052Z,32.65
2019-01-20T10:57:09.695Z,40.43
2019-01-20T10:59:48.547Z,42.88
2019-01-20T11:02:22.512Z,42.58
2019-01-20T11:04:57.394Z,42.48
2019-01-20T11:07:28.795Z,55.50
2019-01-20T11:10:01.573Z,58.10
2019-01-20T11:12:34.367Z,56.68
2019-01-20T11:15:09.151Z,53.23
2019-01-20T11:17:41.655Z,46.33
2019-01-20T11:20:16.665Z,49.95
2019-01-20T11:22:49.013Z,53.78
2019-01-20T11:25:23.529Z,41.73
2019-01-20T11:27:56.210Z,42.20
2019-01-20T11:30:28.474Z,39.65
2019-01-20T11:33:00.732Z,45.43
2019-01-20T11:35:32.702Z,34.33
2019-01-20T11:38:05.410Z,42.25
2019-01-20T11:40:39.153Z,47.80
2019-01-20T11:43:11.517Z,45.70
2019-01-20T11:45:43.457Z,317.15
2019-01-20T11:48:15.876Z,447.07
2019-01-20T11:50:48.432Z,69.97
2019-01-20T11:53:20.495Z,68.92
2019-01-20T11:55:53.479Z,59.27
2019-01-20T11:58:25.676Z,64.03
2019-01-20T12:00:57.755Z,55.17
2019-01-20T12:03:30.443Z,55.23
2019-01-20T12:06:21.768Z,56.92
2019-01-20T12:08:53.989Z,52.48
2019-01-20T12:11:25.961Z,58.35
2019-01-20T12:13:58.186Z,61.40
2019-01-20T12:16:30.124Z,67.03
2019-01-20T12:19:02.706Z,61.65
2019-01-20T12:21:34.910Z,67.05
2019-01-20T12:24:07.351Z,66.95
2019-01-20T12:26:39.626Z,71.72
2019-01-20T12:29:12.027Z,68.55
2019-01-20T12:31:44.669Z,73.55
2019-01-20T12:34:16.727Z,68.10
2019-01-20T12:36:49.533Z,66.12
2019-01-20T12:39:21.764Z,50.48
2019-01-20T12:41:54.173Z,62.27
2019-01-20T12:44:31.373Z,72.17
2019-01-20T12:47:00.191Z,61.68
2019-01-20T12:49:32.557Z,85.75
2019-01-20T12:52:04.589Z,83.33
2019-01-20T12:54:36.951Z,92.12
2019-01-20T12:57:09.088Z,83.52
2019-01-20T12:59:41.123Z,92.85
2019-01-20T13:02:13.174Z,82.42
2019-01-20T13:04:45.231Z,81.92
2019-01-20T13:07:19.375Z,69.60
2019-01-20T13:09:51.781Z,76.85
2019-01-20T13:12:23.898Z,75.00
2019-01-20T13:14:56.159Z,84.58
2019-01-20T13:17:28.551Z,75.87
2019-01-20T13:20:00.820Z,65.25
2019-01-20T13:22:33.549Z,68.37
2019-01-20T13:25:06.921Z,68.52
2019-01-20T13:27:39.253Z,636.33
2019-01-20T13:30:14.062Z,514.65
2019-01-20T13:32:46.556Z,59.25
2019-01-20T13:35:19.968Z,58.75
2019-01-20T13:37:54.988Z,61.30
2019-01-20T13:40:43.209Z,62.75
2019-01-20T13:43:15.568Z,58.90
2019-01-20T13:45:47.687Z,53.95
2019-01-20T13:48:19.906Z,89.30
2019-01-20T13:50:52.151Z,66.65
2019-01-20T13:53:24.095Z,76.02
2019-01-20T13:56:01.150Z,61.70
2019-01-20T13:58:29.835Z,58.38
2019-01-20T14:01:02.140Z,56.80
2019-01-20T14:03:34.319Z,50.98
2019-01-20T14:06:06.987Z,51.25
2019-01-20T14:08:44.246Z,50.80
2019-01-20T14:11:12.993Z,51.88
2019-01-20T14:13:45.438Z,58.30
2019-01-20T14:16:17.828Z,56.37
2019-01-20T14:18:49.817Z,59.00
2019-01-20T14:21:22.184Z,83.15
2019-01-20T14:23:54.810Z,56.02
2019-01-20T14:26:27.137Z,75.12
2019-01-20T14:31:04.934Z,52.55
2019-01-20T14:33:38.450Z,51.18
2019-01-20T14:36:13.723Z,44.27
2019-01-20T14:38:49.425Z,47.60
2019-01-20T14:41:25.817Z,49.58
2019-01-20T14:44:01.142Z,53.30
2019-01-20T14:46:37.225Z,49.00
2019-01-20T14:49:13.326Z,52.10
2019-01-20T14:51:49.295Z,46.05
2019-01-20T14:54:23.390Z,52.50
2019-01-20T14:56:55.620Z,58.75
2019-01-20T14:59:27.953Z,59.60
2019-01-20T15:01:59.999Z,49.05
2019-01-20T15:04:32.399Z,60.38
2019-01-20T15:07:04.477Z,62.83
2019-01-20T15:09:37.993Z,53.70
2019-01-20T15:12:10.263Z,55.95
2019-01-20T15:14:42.593Z,57.90
2019-01-20T15:17:14.694Z,69.03
2019-01-20T15:19:47.023Z,60.08
2019-01-20T15:22:19.180Z,65.57
2019-01-20T15:24:51.518Z,67.12
2019-01-20T15:27:23.765Z,68.87
2019-01-20T15:29:56.049Z,74.77
2019-01-20T15:32:28.240Z,63.42
2019-01-20T15:35:00.608Z,64.55
2019-01-20T15:37:33.172Z,58.90
2019-01-20T15:40:07.344Z,62.33
2019-01-20T15:42:39.379Z,92.95
2019-01-20T15:45:16.582Z,124.20
2019-01-20T15:47:47.493Z,139.03
2019-01-20T15:50:21.921Z,125.70
2019-01-20T15:52:54.175Z,129.50
2019-01-20T15:55:26.301Z,158.32
2019-01-20T15:57:58.912Z,131.27
2019-01-20T16:00:33.325Z,77.87
2019-01-20T16:03:05.756Z,49.95
2019-01-20T16:05:37.928Z,59.20
2019-01-20T16:08:10.309Z,56.40
2019-01-20T16:10:42.654Z,53.13
2019-01-20T16:13:15.144Z,55.17
2019-01-20T16:15:47.571Z,53.63
2019-01-20T16:18:20.154Z,47.25
2019-01-20T16:20:52.259Z,43.52
2019-01-20T16:23:24.483Z,43.87
2019-01-20T16:25:56.654Z,44.13
2019-01-20T16:28:28.620Z,37.50
2019-01-20T16:31:00.789Z,33.40
2019-01-20T16:33:32.947Z,40.78
2019-01-20T16:36:05.505Z,35.28
2019-01-20T16:38:37.938Z,32.65
2019-01-20T16:41:10.142Z,29.85
2019-01-20T16:43:42.685Z,29.27
2019-01-20T16:46:15.426Z,27.25
2019-01-20T16:48:48.603Z,31.30
2019-01-20T16:51:21.195Z,26.52
2019-01-20T16:53:53.513Z,25.65
2019-01-20T16:56:25.651Z,30.90
2019-01-20T16:58:57.908Z,25.68
2019-01-20T17:01:30.145Z,32.88
2019-01-20T17:04:02.413Z,26.93
2019-01-20T17:06:34.530Z,28.57
2019-01-20T17:09:08.992Z,27.87
2019-01-20T17:11:41.284Z,28.80
2019-01-20T17:14:13.766Z,25.27
2019-01-20T17:16:46.443Z,29.90
2019-01-20T17:19:18.460Z,28.07
2019-01-20T17:21:50.427Z,26.27
2019-01-20T17:24:23.673Z,37.20
2019-01-20T17:26:56.325Z,31.90
2019-01-20T17:29:28.358Z,29.85
2019-01-20T17:32:00.495Z,25.20
2019-01-20T17:34:32.633Z,29.48
2019-01-20T17:37:04.769Z,27.07
2019-01-20T17:39:37.037Z,26.95
2019-01-20T17:42:09.192Z,25.88
2019-01-20T17:44:41.555Z,24.98
2019-01-20T17:47:13.823Z,23.55
2019-01-20T17:49:45.919Z,23.00
2019-01-20T17:52:17.996Z,30.65
2019-01-20T17:54:50.103Z,24.92
2019-01-20T17:57:22.986Z,22.02
2019-01-20T17:59:55.305Z,27.45
2019-01-20T18:02:28.011Z,24.23
2019-01-20T18:05:00.149Z,20.15
2019-01-20T18:07:32.318Z,20.72
2019-01-20T18:10:05.824Z,17.45
2019-01-20T18:12:38.436Z,20.20
2019-01-20T18:15:13.613Z,16.30
2019-01-20T18:17:45.982Z,22.50
2019-01-20T18:20:21.093Z,18.20
2019-01-20T18:22:53.524Z,21.65
2019-01-20T18:25:26.151Z,19.25
2019-01-20T18:27:58.530Z,19.48
2019-01-20T18:30:32.787Z,17.50
2019-01-20T18:33:05.181Z,16.20
2019-01-20T18:35:37.195Z,16.12
2019-01-20T18:38:09.659Z,17.27
2019-01-20T18:40:42.634Z,17.57
2019-01-20T18:43:15.276Z,14.03
2019-01-20T18:45:47.302Z,14.25
2019-01-20T18:48:19.563Z,14.50
2019-01-20T18:50:51.698Z,13.38
2019-01-20T18:53:24.287Z,12.60
2019-01-20T18:55:56.342Z,16.17
2019-01-20T18:58:28.933Z,16.07
2019-01-20T19:01:01.180Z,17.45
2019-01-20T19:03:33.793Z,14.30
2019-01-20T19:06:06.005Z,16.62
2019-01-20T19:08:38.121Z,14.03
2019-01-20T19:11:10.289Z,13.90
2019-01-20T19:13:43.631Z,11.57
2019-01-20T19:16:15.650Z,11.08
2019-01-20T19:18:47.923Z,11.68
2019-01-20T19:21:20.139Z,12.65
2019-01-20T19:23:52.522Z,13.05
2019-01-20T19:26:24.535Z,13.32
2019-01-20T19:29:02.898Z,14.33
2019-01-20T19:31:30.351Z,14.83
2019-01-20T19:34:02.518Z,12.95
2019-01-20T19:36:35.033Z,12.98
2019-01-20T19:39:09.766Z,18.37
2019-01-20T19:41:42.008Z,16.37
2019-01-20T19:44:14.017Z,17.70
2019-01-20T19:46:46.433Z,13.35
2019-01-20T19:49:18.459Z,15.32
2019-01-20T19:51:50.552Z,15.70
2019-01-20T19:54:22.734Z,14.83
2019-01-20T19:56:55.620Z,14.75
2019-01-20T19:59:27.771Z,15.20
2019-01-20T20:02:01.272Z,13.13
2019-01-20T20:04:33.458Z,13.68
2019-01-20T20:07:05.565Z,19.70
2019-01-20T20:09:37.569Z,13.60
2019-01-20T20:12:09.645Z,13.93
2019-01-20T20:14:41.655Z,12.28
2019-01-20T20:17:15.257Z,11.70
2019-01-20T20:19:47.320Z,14.15
2019-01-20T20:22:19.773Z,15.23
2019-01-20T20:24:51.920Z,15.98
2019-01-20T20:27:24.795Z,12.90
2019-01-20T20:29:56.830Z,25.20
2019-01-20T20:32:29.140Z,20.05
2019-01-20T20:35:01.217Z,17.75
2019-01-20T20:37:33.906Z,22.95
2019-01-20T20:40:08.197Z,15.20
2019-01-20T20:42:41.529Z,12.60
2019-01-20T20:45:16.221Z,12.60
2019-01-20T20:47:48.470Z,12.05
2019-01-20T20:50:20.628Z,13.22
2019-01-20T20:52:53.214Z,13.68
2019-01-20T20:55:25.759Z,12.78
2019-01-20T20:57:57.991Z,16.10
2019-01-20T21:00:32.709Z,14.20
2019-01-20T21:03:09.020Z,13.83
2019-01-20T21:05:41.376Z,14.10
2019-01-20T21:08:13.622Z,13.78
2019-01-20T21:10:45.965Z,13.18
2019-01-20T21:13:18.087Z,16.67
2019-01-20T21:15:50.943Z,21.25
2019-01-20T21:18:23.413Z,14.70
2019-01-20T21:20:55.774Z,13.55
2019-01-20T21:23:27.982Z,16.93
2019-01-20T21:25:59.988Z,15.78
2019-01-20T21:28:32.226Z,14.40
2019-01-20T21:31:04.566Z,13.80
2019-01-20T21:33:37.735Z,14.63
2019-01-20T21:36:11.109Z,19.02
2019-01-20T21:38:43.607Z,19.85
2019-01-20T21:41:15.775Z,20.50
2019-01-20T21:43:47.839Z,20.43
2019-01-20T21:46:20.013Z,24.90
2019-01-20T21:48:52.375Z,22.85
2019-01-20T21:51:24.550Z,23.73
2019-01-20T21:53:57.140Z,19.32
2019-01-20T21:56:29.563Z,17.75
2019-01-20T21:59:02.003Z,18.62
2019-01-20T22:01:34.370Z,15.65
2019-01-20T22:04:06.541Z,19.67
2019-01-20T22:06:39.109Z,16.82
2019-01-20T22:09:11.263Z,17.15
2019-01-20T22:11:43.735Z,16.27
2019-01-20T22:14:16.087Z,15.70
2019-01-20T22:16:52.734Z,16.17
2019-01-20T22:19:21.812Z,14.33
2019-01-20T22:21:55.153Z,14.78
2019-01-20T22:24:27.324Z,18.42
2019-01-20T22:26:59.645Z,18.37
2019-01-20T22:29:31.609Z,16.73
2019-01-20T22:32:03.734Z,17.67
2019-01-20T22:34:35.819Z,17.85
2019-01-20T22:37:08.677Z,16.55
2019-01-20T22:39:40.926Z,17.70
2019-01-20T22:42:13.069Z,16.20
2019-01-20T22:44:45.442Z,17.48
2019-01-20T22:47:17.579Z,19.62
2019-01-20T22:49:49.942Z,17.80
2019-01-20T22:52:22.433Z,21.12
2019-01-20T22:54:54.770Z,20.85
2019-01-20T22:57:26.953Z,19.45
2019-01-20T23:00:00.111Z,21.80
2019-01-20T23:02:32.844Z,16.60
2019-01-20T23:05:05.270Z,19.92
2019-01-20T23:07:37.390Z,19.37
2019-01-20T23:10:09.486Z,16.73
2019-01-20T23:12:41.603Z,17.50
2019-01-20T23:15:13.630Z,16.12
2019-01-20T23:17:45.744Z,20.40
2019-01-20T23:20:19.248Z,19.15
2019-01-20T23:22:51.308Z,20.32
2019-01-20T23:25:23.436Z,19.42
2019-01-20T23:27:55.947Z,18.62
2019-01-20T23:30:28.292Z,18.50
2019-01-20T23:33:00.393Z,19.45
2019-01-20T23:35:32.742Z,17.73
2019-01-20T23:38:04.853Z,23.00
2019-01-20T23:40:37.189Z,17.02
2019-01-20T23:43:09.758Z,20.30
2019-01-20T23:45:41.926Z,18.12
2019-01-20T23:48:14.280Z,18.30
2019-01-20T23:50:46.485Z,19.85
2019-01-20T23:53:18.935Z,23.70
2019-01-20T23:55:52.151Z,18.57
2019-01-20T23:58:24.355Z,21.93
